createdAt,value
2022-12-08T00:00:10.421Z,78780.19
2022-12-08T00:02:45.389Z,78768.94
2022-12-08T00:05:33.008Z,78749.81
2022-12-08T00:08:20.750Z,78782.69
2022-12-08T00:10:50.236Z,78772.25
2022-12-08T00:13:18.865Z,78793.28
2022-12-08T00:15:47.863Z,78780.09
2022-12-08T00:18:16.398Z,78786.06
2022-12-08T00:20:45.435Z,78759.66
2022-12-08T00:23:14.172Z,78772.16
2022-12-08T00:25:43.012Z,78787.31
2022-12-08T00:28:11.617Z,78753.66
2022-12-08T00:30:44.555Z,78798.91
2022-12-08T00:33:14.075Z,78779.81
2022-12-08T00:35:43.419Z,78789.09
2022-12-08T00:38:12.775Z,78808.91
2022-12-08T00:40:48.741Z,78802.28
2022-12-08T00:43:18.220Z,78784.38
2022-12-08T00:45:46.774Z,78800.16
2022-12-08T00:48:15.501Z,78787.03
2022-12-08T00:50:44.377Z,78792.91
2022-12-08T00:53:13.932Z,78797.50
2022-12-08T00:55:42.494Z,78787.75
2022-12-08T00:58:12.247Z,78798.31
2022-12-08T01:00:44.810Z,78797.69
2022-12-08T01:03:14.684Z,78793.75
2022-12-08T01:05:43.816Z,78735.91
2022-12-08T01:08:13.186Z,78807.09
2022-12-08T01:10:42.561Z,78805.78
2022-12-08T01:13:12.285Z,78800.59
2022-12-08T01:15:40.876Z,78801.16
2022-12-08T01:18:09.874Z,78824.28
2022-12-08T01:20:38.415Z,78798.69
2022-12-08T01:23:07.385Z,78817.19
2022-12-08T01:25:36.760Z,78811.91
2022-12-08T01:28:05.849Z,78791.41
2022-12-08T01:30:34.528Z,78785.44
2022-12-08T01:33:03.583Z,78836.91
2022-12-08T01:35:32.563Z,78836.81
2022-12-08T01:38:01.675Z,78818.34
2022-12-08T01:40:30.682Z,78849.41
2022-12-08T01:42:59.524Z,78839.59
2022-12-08T01:45:30.410Z,78837.00
2022-12-08T01:48:06.070Z,78860.09
2022-12-08T01:50:36.615Z,78830.41
2022-12-08T01:53:12.553Z,78836.31
2022-12-08T01:55:50.237Z,78870.00
2022-12-08T01:58:27.755Z,78862.75
2022-12-08T02:00:56.993Z,78849.63
2022-12-08T02:03:32.591Z,78870.75
2022-12-08T02:06:01.787Z,78875.38
2022-12-08T02:08:31.964Z,78829.88
2022-12-08T02:11:00.894Z,78861.47
2022-12-08T02:13:29.987Z,78873.28
2022-12-08T02:16:30.877Z,78892.94
2022-12-08T02:19:31.951Z,78871.13
2022-12-08T02:22:22.611Z,78897.66
2022-12-08T02:25:00.281Z,78906.91
2022-12-08T02:28:03.815Z,78892.41
2022-12-08T02:30:57.227Z,78916.75
2022-12-08T02:33:39.756Z,78911.91
2022-12-08T02:36:19.155Z,78876.19
2022-12-08T02:39:09.456Z,78926.84
2022-12-08T02:41:50.420Z,78931.75
2022-12-08T02:44:34.195Z,78927.78
2022-12-08T02:47:19.904Z,78933.69
2022-12-08T02:49:49.067Z,78917.31
2022-12-08T02:52:20.905Z,78936.56
2022-12-08T02:55:00.459Z,78933.38
2022-12-08T02:57:59.048Z,78937.31
2022-12-08T03:00:36.615Z,78933.31
2022-12-08T03:03:37.575Z,78945.19
2022-12-08T03:06:33.572Z,78940.50
2022-12-08T03:09:10.609Z,78929.97
2022-12-08T03:12:14.106Z,78937.13
2022-12-08T03:14:48.460Z,78951.53
2022-12-08T03:17:20.694Z,78941.66
2022-12-08T03:19:51.019Z,78956.69
2022-12-08T03:22:26.374Z,78962.59
2022-12-08T03:24:57.792Z,78938.75
2022-12-08T03:27:30.383Z,78966.97
2022-12-08T03:30:01.334Z,78955.72
2022-12-08T03:32:49.109Z,78962.75
2022-12-08T03:35:40.703Z,78962.56
2022-12-08T03:38:13.391Z,78978.81
2022-12-08T03:40:43.043Z,78980.09
2022-12-08T03:43:12.543Z,78973.41
2022-12-08T03:45:41.767Z,78954.09
2022-12-08T03:48:10.857Z,78993.94
2022-12-08T03:50:39.877Z,78962.75
2022-12-08T03:53:08.557Z,78973.50
2022-12-08T03:55:37.489Z,78978.56
2022-12-08T03:58:06.594Z,78980.88
2022-12-08T04:00:35.922Z,78988.53
2022-12-08T04:03:05.662Z,78970.28
2022-12-08T04:05:34.432Z,79008.47
2022-12-08T04:08:03.077Z,78998.38
2022-12-08T04:10:32.172Z,78989.41
2022-12-08T04:13:00.936Z,78997.88
2022-12-08T04:15:30.249Z,78981.91
2022-12-08T04:17:59.306Z,78997.56
2022-12-08T04:20:28.193Z,78998.09
2022-12-08T04:22:56.855Z,79010.47
2022-12-08T04:25:26.374Z,79005.75
2022-12-08T04:27:55.153Z,79008.50
2022-12-08T04:30:23.937Z,79005.25
2022-12-08T04:32:52.611Z,79017.81
2022-12-08T04:35:21.719Z,79014.47
2022-12-08T04:37:50.702Z,79010.97
2022-12-08T04:40:20.356Z,79020.78
2022-12-08T04:42:48.970Z,79026.09
2022-12-08T04:45:18.529Z,79019.91
2022-12-08T04:47:47.931Z,79019.97
2022-12-08T04:50:16.917Z,79008.41
2022-12-08T04:52:45.712Z,79020.31
2022-12-08T04:55:15.050Z,79004.59
2022-12-08T04:57:43.918Z,79051.44
2022-12-08T05:00:14.554Z,79019.97
2022-12-08T05:02:43.413Z,79020.84
2022-12-08T05:05:15.035Z,79043.31
2022-12-08T05:07:44.243Z,79044.56
2022-12-08T05:10:13.807Z,79048.38
2022-12-08T05:12:43.030Z,79026.00
2022-12-08T05:15:12.087Z,79031.13
2022-12-08T05:17:41.270Z,79049.22
2022-12-08T05:20:11.022Z,79045.22
2022-12-08T05:22:40.021Z,79015.41
2022-12-08T05:25:15.849Z,79028.06
2022-12-08T05:27:45.111Z,79039.75
2022-12-08T05:30:14.134Z,79022.38
2022-12-08T05:32:42.972Z,79039.44
2022-12-08T05:35:15.270Z,79046.66
2022-12-08T05:37:44.373Z,79043.00
2022-12-08T05:40:13.418Z,79029.28
2022-12-08T05:42:42.275Z,79048.06
2022-12-08T05:45:11.705Z,79052.59
2022-12-08T05:47:41.269Z,79060.72
2022-12-08T05:50:10.281Z,79062.56
2022-12-08T05:52:39.011Z,79051.84
2022-12-08T05:55:08.210Z,79055.53
2022-12-08T05:57:37.424Z,79057.56
2022-12-08T06:00:07.448Z,79044.06
2022-12-08T06:02:40.594Z,79041.19
2022-12-08T06:05:14.739Z,79050.84
2022-12-08T06:07:43.736Z,79045.19
2022-12-08T06:10:13.217Z,79049.94
2022-12-08T06:12:41.942Z,79037.69
2022-12-08T06:15:11.630Z,79044.53
2022-12-08T06:17:41.062Z,79034.00
2022-12-08T06:20:10.194Z,79038.69
2022-12-08T06:22:39.416Z,79042.59
2022-12-08T06:25:14.855Z,79040.94
2022-12-08T06:27:44.069Z,79026.31
2022-12-08T06:30:13.484Z,79016.66
2022-12-08T06:32:42.351Z,79026.22
2022-12-08T06:35:11.769Z,79030.53
2022-12-08T06:37:40.872Z,78992.34
2022-12-08T06:40:10.107Z,79006.06
2022-12-08T06:42:45.320Z,79014.91
2022-12-08T06:45:17.741Z,78993.47
2022-12-08T06:47:46.698Z,78993.47
2022-12-08T06:50:15.885Z,78998.16
2022-12-08T06:52:54.320Z,79013.38
2022-12-08T06:58:20.273Z,78960.97
2022-12-08T07:00:49.429Z,78992.22
2022-12-08T07:03:18.146Z,78984.97
2022-12-08T07:05:47.276Z,78975.44
2022-12-08T07:08:16.919Z,78973.72
2022-12-08T07:10:46.651Z,78983.72
2022-12-08T07:13:15.509Z,78957.13
2022-12-08T07:15:44.949Z,78980.09
2022-12-08T07:18:13.779Z,78981.72
2022-12-08T07:20:43.904Z,78948.09
2022-12-08T07:23:12.694Z,78957.66
2022-12-08T07:25:41.302Z,78958.06
2022-12-08T07:28:13.533Z,78969.09
2022-12-08T07:30:42.550Z,78967.88
2022-12-08T07:33:11.633Z,78945.94
2022-12-08T07:35:45.031Z,78945.34
2022-12-08T07:38:18.250Z,78951.03
2022-12-08T07:40:46.850Z,78935.59
2022-12-08T07:43:15.617Z,78960.97
2022-12-08T07:45:44.254Z,78943.06
2022-12-08T07:48:13.641Z,78963.03
2022-12-08T07:50:42.949Z,78967.50
2022-12-08T07:53:12.853Z,78951.56
2022-12-08T07:55:42.478Z,78969.84
2022-12-08T07:58:12.211Z,78954.41
2022-12-08T08:00:40.954Z,78965.97
2022-12-08T08:03:12.552Z,78942.34
2022-12-08T08:05:42.058Z,78930.31
2022-12-08T08:08:11.850Z,78949.84
2022-12-08T08:10:40.761Z,78961.06
2022-12-08T08:13:10.848Z,78962.28
2022-12-08T08:15:40.715Z,78957.91
2022-12-08T08:18:09.496Z,78946.03
2022-12-08T08:20:38.272Z,78927.03
2022-12-08T08:23:06.905Z,78931.09
2022-12-08T08:25:35.729Z,78936.03
2022-12-08T08:28:04.587Z,78961.19
2022-12-08T08:30:33.563Z,78931.91
2022-12-08T08:33:02.638Z,78934.75
2022-12-08T08:35:31.714Z,78897.31
2022-12-08T08:38:00.340Z,78928.88
2022-12-08T08:40:29.477Z,78894.94
2022-12-08T08:42:58.126Z,78924.25
2022-12-08T08:45:27.101Z,78917.66
2022-12-08T08:47:55.704Z,78915.81
2022-12-08T08:50:24.796Z,78918.25
2022-12-08T08:52:53.523Z,78920.19
2022-12-08T08:55:22.427Z,78914.06
2022-12-08T08:57:51.530Z,78933.25
2022-12-08T09:00:20.927Z,78922.25
2022-12-08T09:02:49.521Z,78917.50
2022-12-08T09:05:22.524Z,78926.44
2022-12-08T09:07:51.808Z,78938.19
2022-12-08T09:10:20.686Z,78924.75
2022-12-08T09:12:49.566Z,78943.59
2022-12-08T09:15:18.627Z,78924.41
2022-12-08T09:17:47.541Z,78928.09
2022-12-08T09:20:16.552Z,78910.84
2022-12-08T09:22:45.566Z,78907.94
2022-12-08T09:25:14.603Z,78905.22
2022-12-08T09:27:43.728Z,78922.69
2022-12-08T09:30:12.373Z,78920.44
2022-12-08T09:32:41.523Z,78917.50
2022-12-08T09:35:15.850Z,78902.19
2022-12-08T09:37:45.213Z,78924.53
2022-12-08T09:40:19.867Z,78902.72
2022-12-08T09:43:32.423Z,78908.59
2022-12-08T09:46:06.495Z,78921.69
2022-12-08T09:49:14.379Z,78922.44
2022-12-08T09:51:45.974Z,78922.31
2022-12-08T09:54:27.063Z,78922.69
2022-12-08T09:57:02.231Z,78901.88
2022-12-08T09:59:33.957Z,78904.13
2022-12-08T10:02:03.320Z,78905.59
2022-12-08T10:04:40.016Z,78916.34
2022-12-08T10:07:44.338Z,78920.78
2022-12-08T10:10:38.603Z,78924.03
2022-12-08T10:13:35.126Z,78912.97
2022-12-08T10:16:15.103Z,78898.06
2022-12-08T10:18:48.094Z,78908.09
2022-12-08T10:21:23.397Z,78909.53
2022-12-08T10:23:57.632Z,78890.41
2022-12-08T10:26:26.911Z,78915.13
2022-12-08T10:29:02.146Z,78875.78
2022-12-08T10:31:32.166Z,78883.03
2022-12-08T10:34:17.645Z,78895.16
2022-12-08T10:37:01.851Z,78892.28
2022-12-08T10:39:36.846Z,78892.19
2022-12-08T10:42:16.442Z,78896.91
2022-12-08T10:45:11.690Z,78904.94
2022-12-08T10:47:45.395Z,78893.84
2022-12-08T10:50:21.031Z,78908.41
2022-12-08T10:53:00.010Z,78907.16
2022-12-08T10:55:31.242Z,78878.16
2022-12-08T10:58:00.935Z,78870.47
2022-12-08T11:00:31.424Z,78902.03
2022-12-08T11:03:05.974Z,78900.94
2022-12-08T11:05:37.997Z,78862.63
2022-12-08T11:08:08.243Z,78862.72
2022-12-08T11:10:45.778Z,78878.00
2022-12-08T11:13:25.245Z,78889.94
2022-12-08T11:15:59.336Z,78862.44
2022-12-08T11:18:40.700Z,78865.69
2022-12-08T11:21:17.256Z,78886.38
2022-12-08T11:24:24.089Z,78888.50
2022-12-08T11:27:04.549Z,78882.59
2022-12-08T11:30:20.068Z,78880.72
2022-12-08T11:32:54.684Z,78884.66
2022-12-08T11:35:36.160Z,78878.13
2022-12-08T11:38:21.462Z,78881.53
2022-12-08T11:41:10.974Z,78866.41
2022-12-08T11:44:10.490Z,78873.00
2022-12-08T11:46:53.279Z,78855.28
2022-12-08T11:49:32.901Z,78817.06
2022-12-08T11:56:40.250Z,78859.38
2022-12-08T11:59:51.176Z,78868.66
2022-12-08T12:03:34.557Z,78864.72
2022-12-08T12:06:56.804Z,78844.91
2022-12-08T12:09:43.121Z,78845.03
2022-12-08T12:12:23.750Z,78849.69
2022-12-08T12:15:23.198Z,78877.41
2022-12-08T12:17:57.262Z,78874.84
2022-12-08T12:20:31.327Z,78870.31
2022-12-08T12:23:18.733Z,78878.94
2022-12-08T12:25:57.809Z,78880.91
2022-12-08T12:28:35.900Z,78880.91
2022-12-08T12:31:12.179Z,78873.66
2022-12-08T12:33:43.018Z,78845.94
2022-12-08T12:36:14.671Z,78880.94
2022-12-08T12:39:04.631Z,78881.63
2022-12-08T12:41:46.561Z,78875.66
2022-12-08T12:44:16.032Z,78880.97
2022-12-08T12:46:55.488Z,78882.94
2022-12-08T12:49:46.959Z,78888.91
2022-12-08T12:52:24.498Z,78891.59
2022-12-08T12:54:54.147Z,78896.91
2022-12-08T12:57:36.973Z,78880.41
2022-12-08T13:00:07.025Z,78897.53
2022-12-08T13:02:50.420Z,78890.91
2022-12-08T13:05:35.777Z,78901.38
2022-12-08T13:08:23.688Z,78904.00
2022-12-08T13:11:10.120Z,78900.13
2022-12-08T13:13:56.346Z,78892.84
2022-12-08T13:16:28.611Z,78928.41
2022-12-08T13:19:05.199Z,78910.63
2022-12-08T13:21:41.591Z,78921.91
2022-12-08T13:24:14.454Z,78923.16
2022-12-08T13:26:49.771Z,78942.28
2022-12-08T13:29:29.292Z,78933.66
2022-12-08T13:32:05.594Z,78901.28
2022-12-08T13:34:43.041Z,78933.53
2022-12-08T13:37:12.274Z,78940.84
2022-12-08T13:39:42.014Z,78944.81
2022-12-08T13:42:14.305Z,78941.53
2022-12-08T13:48:44.667Z,78956.81
2022-12-08T13:55:49.696Z,78946.84
2022-12-08T13:57:34.719Z,78942.22
2022-12-08T14:00:16.617Z,78933.00
2022-12-08T14:02:50.964Z,78910.38
2022-12-08T14:05:47.466Z,78945.38
2022-12-08T14:11:39.038Z,78957.34
2022-12-08T14:14:53.762Z,78959.34
2022-12-08T14:17:18.957Z,78967.25
2022-12-08T14:20:07.627Z,78950.78
2022-12-08T14:22:41.578Z,78954.03
2022-12-08T14:25:17.751Z,78920.31
2022-12-08T14:27:47.820Z,78948.84
2022-12-08T14:30:43.135Z,78956.09
2022-12-08T14:33:18.126Z,78950.91
2022-12-08T14:35:56.570Z,78946.88
2022-12-08T14:38:29.417Z,78950.22
2022-12-08T14:41:08.510Z,78946.94
2022-12-08T14:43:37.929Z,78956.25
2022-12-08T14:46:22.360Z,78953.56
2022-12-08T14:48:52.278Z,78935.75
2022-12-08T14:51:23.437Z,78950.94
2022-12-08T14:54:10.967Z,78950.28
2022-12-08T14:57:03.330Z,78932.56
2022-12-08T14:59:38.924Z,78956.94
2022-12-08T15:02:13.586Z,78965.59
2022-12-08T15:04:49.947Z,78947.78
2022-12-08T15:07:23.406Z,78955.03
2022-12-08T15:10:15.692Z,78950.44
2022-12-08T15:13:03.882Z,78965.00
2022-12-08T15:15:48.464Z,78970.34
2022-12-08T15:18:37.669Z,78964.44
2022-12-08T15:21:13.864Z,78964.47
2022-12-08T15:23:46.063Z,78964.50
2022-12-08T15:26:24.690Z,78949.34
2022-12-08T15:28:55.062Z,78946.13
2022-12-08T15:31:24.856Z,78957.34
2022-12-08T15:33:56.757Z,78925.75
2022-12-08T15:36:26.873Z,78950.88
2022-12-08T15:38:56.243Z,78932.44
2022-12-08T15:41:26.566Z,78960.19
2022-12-08T15:43:56.657Z,78948.31
2022-12-08T15:46:25.512Z,78931.13
2022-12-08T15:48:58.120Z,78957.53
2022-12-08T15:51:27.402Z,78945.00
2022-12-08T15:53:57.921Z,78939.69
2022-12-08T15:56:31.205Z,78931.13
2022-12-08T15:59:02.435Z,78934.44
2022-12-08T16:01:32.086Z,78945.69
2022-12-08T16:09:47.589Z,78936.47
2022-12-08T16:18:28.792Z,78944.38
2022-12-08T16:21:12.074Z,78951.00
2022-12-08T16:23:46.612Z,78962.25
2022-12-08T16:29:21.267Z,78945.06
2022-12-08T16:31:53.011Z,78920.00
2022-12-08T16:34:24.912Z,78953.00
2022-12-08T16:36:54.227Z,78951.03
2022-12-08T16:39:23.307Z,78925.94
2022-12-08T16:42:11.683Z,78932.56
2022-12-08T16:44:43.298Z,78926.63
2022-12-08T16:47:14.548Z,78925.31
2022-12-08T16:49:48.538Z,78960.34
2022-12-08T16:52:22.570Z,78950.44
2022-12-08T16:54:53.366Z,78918.72
2022-12-08T16:57:24.572Z,78932.59
2022-12-08T17:00:00.389Z,78924.66
2022-12-08T17:02:32.880Z,78935.91
2022-12-08T17:05:07.117Z,78918.06
2022-12-08T17:07:38.033Z,78961.66
2022-12-08T17:10:09.494Z,78953.06
2022-12-08T17:12:40.792Z,78898.88
2022-12-08T17:15:14.133Z,78943.81
2022-12-08T17:17:44.836Z,78911.44
2022-12-08T17:20:19.365Z,78955.03
2022-12-08T17:22:51.331Z,78930.59
2022-12-08T17:25:21.047Z,78923.31
2022-12-08T17:27:52.591Z,78940.50
2022-12-08T17:30:23.554Z,78920.69
2022-12-08T17:32:57.164Z,78903.53
2022-12-08T17:35:30.252Z,78927.31
2022-12-08T17:38:00.051Z,78912.09
2022-12-08T17:40:29.114Z,78910.09
2022-12-08T17:42:59.361Z,78933.88
2022-12-08T17:45:31.942Z,78904.78
2022-12-08T17:48:04.107Z,78940.47
2022-12-08T17:50:36.062Z,78927.25
2022-12-08T17:53:10.931Z,78903.38
2022-12-08T17:55:42.642Z,78946.34
2022-12-08T17:58:12.117Z,78944.97
2022-12-08T18:00:46.966Z,78907.28
2022-12-08T18:03:22.771Z,78914.59
2022-12-08T18:05:52.394Z,78913.31
2022-12-08T18:08:24.243Z,78937.09
2022-12-08T18:10:55.422Z,78910.59
2022-12-08T18:13:26.956Z,78898.03
2022-12-08T18:15:58.451Z,78923.88
2022-12-08T18:18:31.183Z,78902.72
2022-12-08T18:21:01.102Z,78927.22
2022-12-08T18:23:30.815Z,78921.28
2022-12-08T18:26:00.891Z,78919.31
2022-12-08T18:28:30.223Z,78915.34
2022-12-08T18:30:59.645Z,78906.72
2022-12-08T18:33:32.022Z,78928.50
2022-12-08T18:36:02.903Z,78899.41
2022-12-08T18:38:39.451Z,78905.38
2022-12-08T18:41:15.133Z,78941.06
2022-12-08T18:43:47.403Z,78932.47
2022-12-08T18:46:18.565Z,78933.78
2022-12-08T18:48:52.549Z,78933.09
2022-12-08T18:51:25.732Z,78931.09
2022-12-08T18:53:55.230Z,78923.81
2022-12-08T18:56:29.644Z,78933.06
2022-12-08T18:59:03.814Z,78915.16
2022-12-08T19:01:36.066Z,78931.03
2022-12-08T19:06:57.440Z,78907.25
2022-12-08T19:09:27.684Z,78897.34
2022-12-08T19:11:57.425Z,78913.84
2022-12-08T19:14:28.805Z,78931.03
2022-12-08T19:16:59.158Z,78934.97
2022-12-08T19:19:34.133Z,78915.13
2022-12-08T19:22:05.047Z,78920.47
2022-12-08T19:24:36.926Z,78905.97
2022-12-08T19:27:06.751Z,78921.19
2022-12-08T19:29:35.796Z,78892.84
2022-12-08T19:32:06.112Z,78898.81
2022-12-08T19:34:35.645Z,78906.78
2022-12-08T19:37:07.693Z,78909.44
2022-12-08T19:39:54.925Z,78879.75
2022-12-08T19:42:42.446Z,78879.75
2022-12-08T19:45:17.587Z,78908.81
2022-12-08T19:47:46.668Z,78891.00
2022-12-08T19:50:35.273Z,78912.13
2022-12-08T19:53:16.489Z,78902.88
2022-12-08T19:55:45.929Z,78904.84
2022-12-08T19:58:20.417Z,78875.16
2022-12-08T20:00:50.820Z,78901.56
2022-12-08T20:03:23.939Z,78911.47
2022-12-08T20:05:56.491Z,78914.13
2022-12-08T20:08:25.774Z,78910.16
2022-12-08T20:10:56.893Z,78912.78
2022-12-08T20:13:46.497Z,78922.69
2022-12-08T20:16:17.324Z,78914.78
2022-12-08T20:18:48.785Z,78884.41
2022-12-08T20:21:18.266Z,78885.72
2022-12-08T20:23:49.687Z,78867.88
2022-12-08T20:26:22.539Z,78879.78
2022-12-08T20:28:52.359Z,78867.88
2022-12-08T20:31:26.336Z,78872.50
2022-12-08T20:33:55.886Z,78877.13
2022-12-08T20:36:24.929Z,78867.22
2022-12-08T20:38:54.928Z,78899.56
2022-12-08T20:41:24.934Z,78881.72
2022-12-08T20:43:54.199Z,78894.28
2022-12-08T20:46:23.448Z,78894.28
2022-12-08T20:48:52.499Z,78894.94
2022-12-08T20:51:23.757Z,78879.09
2022-12-08T20:53:56.306Z,78887.69
2022-12-08T20:56:26.757Z,78902.22
2022-12-08T20:58:57.082Z,78889.66
2022-12-08T21:01:27.137Z,78873.19
2022-12-08T21:03:56.214Z,78873.84
2022-12-08T21:06:28.146Z,78889.66
2022-12-08T21:08:57.505Z,78889.66
2022-12-08T21:11:26.540Z,78868.53
2022-12-08T21:13:55.840Z,78868.50
2022-12-08T21:16:24.749Z,78871.16
2022-12-08T21:18:53.917Z,78846.72
2022-12-08T21:21:22.946Z,78854.63
2022-12-08T21:23:52.015Z,78859.25
2022-12-08T21:26:24.233Z,78851.97
2022-12-08T21:28:55.623Z,78877.09
2022-12-08T21:31:27.288Z,78870.50
2022-12-08T21:33:56.659Z,78853.34
2022-12-08T21:36:25.958Z,78871.84
2022-12-08T21:38:56.009Z,78828.28
2022-12-08T21:41:44.053Z,78866.56
2022-12-08T21:44:16.737Z,78842.78
2022-12-08T21:46:46.568Z,78863.91
2022-12-08T21:49:16.043Z,78847.41
2022-12-08T21:51:45.319Z,78848.06
2022-12-08T21:54:18.801Z,78871.16
2022-12-08T21:56:50.459Z,78881.75
2022-12-08T22:00:14.794Z,78870.53
2022-12-08T22:02:46.048Z,78851.38
2022-12-08T22:05:15.515Z,78844.13
2022-12-08T22:07:44.661Z,78820.34
2022-12-08T22:10:14.432Z,78839.50
2022-12-08T22:12:43.315Z,78842.78
2022-12-08T22:15:15.509Z,78826.28
2022-12-08T22:17:45.576Z,78842.78
2022-12-08T22:20:17.997Z,78840.81
2022-12-08T22:22:47.709Z,78809.81
2022-12-08T22:25:16.539Z,78852.72
2022-12-08T22:27:47.616Z,78835.53
2022-12-08T22:30:16.824Z,78844.75
2022-12-08T22:32:45.692Z,78828.28
2022-12-08T22:35:14.959Z,78842.13
2022-12-08T22:37:43.842Z,78797.25
2022-12-08T22:40:12.877Z,78816.38
2022-12-08T22:42:41.876Z,78811.75
2022-12-08T22:45:14.748Z,78817.69
2022-12-08T22:47:44.883Z,78830.88
2022-12-08T22:50:13.644Z,78823.59
2022-12-08T22:52:43.652Z,78822.97
2022-12-08T22:55:15.745Z,78815.03
2022-12-08T22:57:45.486Z,78828.22
2022-12-08T23:00:14.699Z,78793.91
2022-12-08T23:02:44.084Z,78787.97
2022-12-08T23:05:22.522Z,78815.00
2022-12-08T23:07:52.811Z,78793.91
2022-12-08T23:10:22.077Z,78815.72
2022-12-08T23:12:50.784Z,78800.53
2022-12-08T23:15:19.978Z,78779.44
2022-12-08T23:17:49.072Z,78782.09
2022-12-08T23:20:18.682Z,78812.41
2022-12-08T23:22:48.044Z,78796.59
2022-12-08T23:25:19.153Z,78790.00
2022-12-08T23:27:49.894Z,78787.34
2022-12-08T23:30:19.073Z,78786.03
2022-12-08T23:32:48.049Z,78799.88
2022-12-08T23:35:17.491Z,78798.56
2022-12-08T23:37:46.209Z,78792.63
2022-12-08T23:40:15.292Z,78772.84
2022-12-08T23:42:44.090Z,78731.94
2022-12-08T23:45:13.452Z,78789.34
2022-12-08T23:47:42.189Z,78764.28
2022-12-08T23:50:12.170Z,78766.91
2022-12-08T23:52:41.120Z,78782.72
2022-12-08T23:55:10.546Z,78774.78
2022-12-08T23:57:40.221Z,78774.13
